sensor_id;sensor_type;location;lat;lon;timestamp;P1;durP1;ratioP1;P2;durP2;ratioP2
34581;SDS011;20814;49.364;8.804;2023-03-01T00:01:19;12.25;;;4.85;;
34581;SDS011;20814;49.364;8.804;2023-03-01T00:03:44;9.68;;;4.65;;
34581;SDS011;20814;49.364;8.804;2023-03-01T00:06:09;10.47;;;4.57;;
34581;SDS011;20814;49.364;8.804;2023-03-01T00:08:35;10.07;;;4.63;;
34581;SDS011;20814;49.364;8.804;2023-03-01T00:11:07;7.65;;;3.95;;
34581;SDS011;20814;49.364;8.804;2023-03-01T00:13:34;7.30;;;3.90;;
34581;SDS011;20814;49.364;8.804;2023-03-01T00:16:03;8.30;;;4.28;;
34581;SDS011;20814;49.364;8.804;2023-03-01T00:18:29;12.52;;;5.20;;
34581;SDS011;20814;49.364;8.804;2023-03-01T00:20:54;11.83;;;4.87;;
34581;SDS011;20814;49.364;8.804;2023-03-01T00:23:20;8.98;;;4.60;;
34581;SDS011;20814;49.364;8.804;2023-03-01T00:25:45;9.77;;;4.43;;
34581;SDS011;20814;49.364;8.804;2023-03-01T00:28:11;11.52;;;4.93;;
34581;SDS011;20814;49.364;8.804;2023-03-01T00:30:36;11.90;;;4.50;;
34581;SDS011;20814;49.364;8.804;2023-03-01T00:33:01;10.07;;;5.10;;
34581;SDS011;20814;49.364;8.804;2023-03-01T00:35:26;9.27;;;4.80;;
34581;SDS011;20814;49.364;8.804;2023-03-01T00:37:51;9.53;;;4.47;;
34581;SDS011;20814;49.364;8.804;2023-03-01T00:40:23;9.52;;;4.38;;
34581;SDS011;20814;49.364;8.804;2023-03-01T00:42:48;13.30;;;5.68;;
34581;SDS011;20814;49.364;8.804;2023-03-01T00:45:13;11.13;;;5.03;;
34581;SDS011;20814;49.364;8.804;2023-03-01T00:47:38;16.33;;;4.80;;
34581;SDS011;20814;49.364;8.804;2023-03-01T00:50:04;9.27;;;4.50;;
34581;SDS011;20814;49.364;8.804;2023-03-01T00:52:29;8.82;;;4.55;;
34581;SDS011;20814;49.364;8.804;2023-03-01T00:54:54;13.63;;;4.63;;
34581;SDS011;20814;49.364;8.804;2023-03-01T00:57:19;10.02;;;5.15;;
34581;SDS011;20814;49.364;8.804;2023-03-01T00:59:44;8.98;;;4.28;;
34581;SDS011;20814;49.364;8.804;2023-03-01T01:02:09;12.07;;;5.15;;
34581;SDS011;20814;49.364;8.804;2023-03-01T01:04:35;10.77;;;4.57;;
34581;SDS011;20814;49.364;8.804;2023-03-01T01:07:00;12.77;;;5.15;;
34581;SDS011;20814;49.364;8.804;2023-03-01T01:09:25;11.95;;;4.22;;
34581;SDS011;20814;49.364;8.804;2023-03-01T01:11:50;12.73;;;5.87;;
34581;SDS011;20814;49.364;8.804;2023-03-01T01:14:16;10.23;;;5.05;;
34581;SDS011;20814;49.364;8.804;2023-03-01T01:16:41;12.60;;;5.20;;
34581;SDS011;20814;49.364;8.804;2023-03-01T01:19:06;7.72;;;4.60;;
34581;SDS011;20814;49.364;8.804;2023-03-01T01:21:32;12.30;;;4.97;;
34581;SDS011;20814;49.364;8.804;2023-03-01T01:23:57;9.57;;;4.50;;
34581;SDS011;20814;49.364;8.804;2023-03-01T01:26:23;12.82;;;5.05;;
34581;SDS011;20814;49.364;8.804;2023-03-01T01:28:49;12.55;;;5.07;;
34581;SDS011;20814;49.364;8.804;2023-03-01T01:31:15;11.73;;;5.30;;
34581;SDS011;20814;49.364;8.804;2023-03-01T01:33:40;11.05;;;5.15;;
34581;SDS011;20814;49.364;8.804;2023-03-01T01:36:06;12.55;;;5.50;;
34581;SDS011;20814;49.364;8.804;2023-03-01T01:38:31;15.05;;;5.53;;
34581;SDS011;20814;49.364;8.804;2023-03-01T01:40:57;13.73;;;5.28;;
34581;SDS011;20814;49.364;8.804;2023-03-01T01:43:23;11.30;;;5.82;;
34581;SDS011;20814;49.364;8.804;2023-03-01T01:45:52;12.95;;;5.82;;
34581;SDS011;20814;49.364;8.804;2023-03-01T01:48:20;9.93;;;4.68;;
34581;SDS011;20814;49.364;8.804;2023-03-01T01:50:49;10.90;;;5.20;;
34581;SDS011;20814;49.364;8.804;2023-03-01T01:53:16;13.50;;;5.75;;
34581;SDS011;20814;49.364;8.804;2023-03-01T01:55:43;10.23;;;4.70;;
34581;SDS011;20814;49.364;8.804;2023-03-01T01:58:10;12.90;;;5.57;;
34581;SDS011;20814;49.364;8.804;2023-03-01T02:00:36;10.88;;;5.68;;
34581;SDS011;20814;49.364;8.804;2023-03-01T02:03:03;11.00;;;4.97;;
34581;SDS011;20814;49.364;8.804;2023-03-01T02:05:34;14.32;;;5.50;;
34581;SDS011;20814;49.364;8.804;2023-03-01T02:08:01;11.40;;;5.05;;
34581;SDS011;20814;49.364;8.804;2023-03-01T02:10:26;9.38;;;4.90;;
34581;SDS011;20814;49.364;8.804;2023-03-01T02:12:52;10.30;;;5.18;;
34581;SDS011;20814;49.364;8.804;2023-03-01T02:15:18;13.27;;;6.00;;
34581;SDS011;20814;49.364;8.804;2023-03-01T02:17:44;15.00;;;5.47;;
34581;SDS011;20814;49.364;8.804;2023-03-01T02:22:53;11.23;;;4.85;;
34581;SDS011;20814;49.364;8.804;2023-03-01T02:25:27;11.45;;;5.03;;
34581;SDS011;20814;49.364;8.804;2023-03-01T02:30:26;12.10;;;5.40;;
34581;SDS011;20814;49.364;8.804;2023-03-01T02:32:53;15.80;;;5.47;;
34581;SDS011;20814;49.364;8.804;2023-03-01T02:35:19;13.05;;;5.43;;
34581;SDS011;20814;49.364;8.804;2023-03-01T02:37:44;15.68;;;5.03;;
34581;SDS011;20814;49.364;8.804;2023-03-01T02:40:14;12.27;;;5.63;;
34581;SDS011;20814;49.364;8.804;2023-03-01T02:42:45;13.10;;;5.47;;
34581;SDS011;20814;49.364;8.804;2023-03-01T02:45:12;15.63;;;5.75;;
34581;SDS011;20814;49.364;8.804;2023-03-01T02:47:37;18.05;;;5.97;;
34581;SDS011;20814;49.364;8.804;2023-03-01T02:50:02;12.73;;;5.43;;
34581;SDS011;20814;49.364;8.804;2023-03-01T02:55:27;14.95;;;5.57;;
34581;SDS011;20814;49.364;8.804;2023-03-01T02:57:52;15.65;;;6.28;;
34581;SDS011;20814;49.364;8.804;2023-03-01T03:00:19;12.23;;;5.22;;
34581;SDS011;20814;49.364;8.804;2023-03-01T03:02:46;16.25;;;5.38;;
34581;SDS011;20814;49.364;8.804;2023-03-01T03:05:13;15.30;;;5.90;;
34581;SDS011;20814;49.364;8.804;2023-03-01T03:07:40;11.85;;;5.22;;
34581;SDS011;20814;49.364;8.804;2023-03-01T03:10:06;14.90;;;6.35;;
34581;SDS011;20814;49.364;8.804;2023-03-01T03:12:31;11.25;;;5.40;;
34581;SDS011;20814;49.364;8.804;2023-03-01T03:14:57;12.82;;;5.68;;
34581;SDS011;20814;49.364;8.804;2023-03-01T03:17:22;15.48;;;5.57;;
34581;SDS011;20814;49.364;8.804;2023-03-01T03:19:47;11.82;;;5.18;;
34581;SDS011;20814;49.364;8.804;2023-03-01T03:22:12;12.88;;;5.35;;
34581;SDS011;20814;49.364;8.804;2023-03-01T03:24:38;14.02;;;6.10;;
34581;SDS011;20814;49.364;8.804;2023-03-01T03:27:04;14.15;;;5.75;;
34581;SDS011;20814;49.364;8.804;2023-03-01T03:29:29;10.40;;;5.57;;
34581;SDS011;20814;49.364;8.804;2023-03-01T03:31:55;12.23;;;4.95;;
34581;SDS011;20814;49.364;8.804;2023-03-01T03:34:20;11.93;;;5.43;;
34581;SDS011;20814;49.364;8.804;2023-03-01T03:36:45;12.60;;;6.13;;
34581;SDS011;20814;49.364;8.804;2023-03-01T03:39:10;15.52;;;6.00;;
34581;SDS011;20814;49.364;8.804;2023-03-01T03:41:35;14.68;;;6.30;;
34581;SDS011;20814;49.364;8.804;2023-03-01T03:44:00;13.65;;;6.40;;
34581;SDS011;20814;49.364;8.804;2023-03-01T03:46:26;12.20;;;5.40;;
34581;SDS011;20814;49.364;8.804;2023-03-01T03:48:51;16.65;;;6.93;;
34581;SDS011;20814;49.364;8.804;2023-03-01T03:51:16;18.58;;;5.65;;
34581;SDS011;20814;49.364;8.804;2023-03-01T03:53:42;12.95;;;5.63;;
34581;SDS011;20814;49.364;8.804;2023-03-01T03:56:08;16.75;;;7.07;;
34581;SDS011;20814;49.364;8.804;2023-03-01T03:58:33;11.05;;;5.43;;
34581;SDS011;20814;49.364;8.804;2023-03-01T04:00:59;9.30;;;4.90;;
34581;SDS011;20814;49.364;8.804;2023-03-01T04:03:25;18.75;;;6.07;;
34581;SDS011;20814;49.364;8.804;2023-03-01T04:05:51;16.35;;;5.53;;
34581;SDS011;20814;49.364;8.804;2023-03-01T04:08:17;10.32;;;5.40;;
34581;SDS011;20814;49.364;8.804;2023-03-01T04:10:45;13.75;;;6.00;;
34581;SDS011;20814;49.364;8.804;2023-03-01T04:13:11;13.68;;;6.65;;
34581;SDS011;20814;49.364;8.804;2023-03-01T04:15:37;16.40;;;6.05;;
34581;SDS011;20814;49.364;8.804;2023-03-01T04:18:02;13.75;;;6.05;;
34581;SDS011;20814;49.364;8.804;2023-03-01T04:20:29;12.35;;;5.57;;
34581;SDS011;20814;49.364;8.804;2023-03-01T04:23:02;12.52;;;6.00;;
34581;SDS011;20814;49.364;8.804;2023-03-01T04:25:35;18.58;;;6.82;;
34581;SDS011;20814;49.364;8.804;2023-03-01T04:28:00;13.57;;;6.82;;
34581;SDS011;20814;49.364;8.804;2023-03-01T04:30:25;9.32;;;4.97;;
34581;SDS011;20814;49.364;8.804;2023-03-01T04:32:51;12.98;;;5.70;;
34581;SDS011;20814;49.364;8.804;2023-03-01T04:35:17;12.80;;;5.60;;
34581;SDS011;20814;49.364;8.804;2023-03-01T04:37:42;10.38;;;5.00;;
34581;SDS011;20814;49.364;8.804;2023-03-01T04:40:07;18.98;;;6.22;;
34581;SDS011;20814;49.364;8.804;2023-03-01T04:42:41;11.60;;;5.65;;
34581;SDS011;20814;49.364;8.804;2023-03-01T04:45:07;14.45;;;5.50;;
34581;SDS011;20814;49.364;8.804;2023-03-01T04:47:37;15.98;;;5.97;;
34581;SDS011;20814;49.364;8.804;2023-03-01T04:50:03;17.08;;;5.85;;
34581;SDS011;20814;49.364;8.804;2023-03-01T04:52:28;11.55;;;5.60;;
34581;SDS011;20814;49.364;8.804;2023-03-01T04:54:53;16.20;;;6.47;;
34581;SDS011;20814;49.364;8.804;2023-03-01T04:57:18;15.97;;;5.73;;
34581;SDS011;20814;49.364;8.804;2023-03-01T04:59:44;16.15;;;6.88;;
34581;SDS011;20814;49.364;8.804;2023-03-01T05:02:09;16.10;;;6.88;;
34581;SDS011;20814;49.364;8.804;2023-03-01T05:04:34;18.73;;;6.63;;
34581;SDS011;20814;49.364;8.804;2023-03-01T05:06:59;20.15;;;7.50;;
34581;SDS011;20814;49.364;8.804;2023-03-01T05:09:24;11.00;;;5.30;;
34581;SDS011;20814;49.364;8.804;2023-03-01T05:11:50;21.80;;;6.65;;
34581;SDS011;20814;49.364;8.804;2023-03-01T05:14:16;12.88;;;5.47;;
34581;SDS011;20814;49.364;8.804;2023-03-01T05:16:42;12.88;;;5.97;;
34581;SDS011;20814;49.364;8.804;2023-03-01T05:19:07;12.77;;;5.80;;
34581;SDS011;20814;49.364;8.804;2023-03-01T05:21:40;13.95;;;5.72;;
34581;SDS011;20814;49.364;8.804;2023-03-01T05:24:25;18.70;;;6.10;;
34581;SDS011;20814;49.364;8.804;2023-03-01T05:26:51;18.75;;;5.95;;
34581;SDS011;20814;49.364;8.804;2023-03-01T05:29:17;20.55;;;7.75;;
34581;SDS011;20814;49.364;8.804;2023-03-01T05:31:42;13.57;;;6.55;;
34581;SDS011;20814;49.364;8.804;2023-03-01T05:34:07;13.07;;;6.63;;
34581;SDS011;20814;49.364;8.804;2023-03-01T05:36:32;14.53;;;6.17;;
34581;SDS011;20814;49.364;8.804;2023-03-01T05:38:57;14.27;;;6.10;;
34581;SDS011;20814;49.364;8.804;2023-03-01T05:41:23;17.92;;;6.15;;
34581;SDS011;20814;49.364;8.804;2023-03-01T05:43:48;15.02;;;6.07;;
34581;SDS011;20814;49.364;8.804;2023-03-01T05:46:13;15.77;;;6.70;;
34581;SDS011;20814;49.364;8.804;2023-03-01T05:48:40;13.73;;;5.72;;
34581;SDS011;20814;49.364;8.804;2023-03-01T05:51:05;13.75;;;6.13;;
34581;SDS011;20814;49.364;8.804;2023-03-01T05:53:31;12.82;;;5.55;;
34581;SDS011;20814;49.364;8.804;2023-03-01T05:55:56;16.60;;;6.27;;
34581;SDS011;20814;49.364;8.804;2023-03-01T05:58:21;14.27;;;5.30;;
34581;SDS011;20814;49.364;8.804;2023-03-01T06:00:47;16.25;;;6.65;;
34581;SDS011;20814;49.364;8.804;2023-03-01T06:03:13;10.30;;;5.28;;
34581;SDS011;20814;49.364;8.804;2023-03-01T06:05:38;18.95;;;6.43;;
34581;SDS011;20814;49.364;8.804;2023-03-01T06:08:04;13.48;;;5.57;;
34581;SDS011;20814;49.364;8.804;2023-03-01T06:10:29;13.48;;;6.07;;
34581;SDS011;20814;49.364;8.804;2023-03-01T06:12:54;14.63;;;6.40;;
34581;SDS011;20814;49.364;8.804;2023-03-01T06:15:20;18.58;;;6.75;;
34581;SDS011;20814;49.364;8.804;2023-03-01T06:17:46;11.77;;;5.55;;
34581;SDS011;20814;49.364;8.804;2023-03-01T06:22:36;12.90;;;5.90;;
34581;SDS011;20814;49.364;8.804;2023-03-01T06:25:02;17.08;;;6.53;;
34581;SDS011;20814;49.364;8.804;2023-03-01T06:27:27;15.65;;;6.75;;
34581;SDS011;20814;49.364;8.804;2023-03-01T06:29:52;18.13;;;5.78;;
34581;SDS011;20814;49.364;8.804;2023-03-01T06:32:17;14.20;;;6.70;;
34581;SDS011;20814;49.364;8.804;2023-03-01T06:34:43;16.40;;;6.68;;
34581;SDS011;20814;49.364;8.804;2023-03-01T06:37:08;15.18;;;6.75;;
34581;SDS011;20814;49.364;8.804;2023-03-01T06:39:33;17.15;;;6.95;;
34581;SDS011;20814;49.364;8.804;2023-03-01T06:41:59;17.70;;;6.78;;
34581;SDS011;20814;49.364;8.804;2023-03-01T06:44:24;15.60;;;6.47;;
34581;SDS011;20814;49.364;8.804;2023-03-01T06:46:49;13.90;;;5.00;;
34581;SDS011;20814;49.364;8.804;2023-03-01T06:49:14;18.10;;;6.10;;
34581;SDS011;20814;49.364;8.804;2023-03-01T06:51:41;14.27;;;6.50;;
34581;SDS011;20814;49.364;8.804;2023-03-01T06:54:06;13.88;;;7.03;;
34581;SDS011;20814;49.364;8.804;2023-03-01T06:56:31;20.98;;;6.80;;
34581;SDS011;20814;49.364;8.804;2023-03-01T06:58:56;15.82;;;6.22;;
34581;SDS011;20814;49.364;8.804;2023-03-01T07:01:22;17.07;;;6.60;;
34581;SDS011;20814;49.364;8.804;2023-03-01T07:03:47;19.20;;;6.93;;
34581;SDS011;20814;49.364;8.804;2023-03-01T07:06:12;18.07;;;7.27;;
34581;SDS011;20814;49.364;8.804;2023-03-01T07:08:37;17.83;;;7.22;;
34581;SDS011;20814;49.364;8.804;2023-03-01T07:11:02;15.60;;;6.60;;
34581;SDS011;20814;49.364;8.804;2023-03-01T07:13:28;23.00;;;6.63;;
34581;SDS011;20814;49.364;8.804;2023-03-01T07:15:54;12.82;;;5.70;;
34581;SDS011;20814;49.364;8.804;2023-03-01T07:18:19;13.60;;;6.10;;
34581;SDS011;20814;49.364;8.804;2023-03-01T07:20:44;14.40;;;6.37;;
34581;SDS011;20814;49.364;8.804;2023-03-01T07:23:09;13.52;;;5.90;;
34581;SDS011;20814;49.364;8.804;2023-03-01T07:25:34;15.30;;;6.75;;
34581;SDS011;20814;49.364;8.804;2023-03-01T07:27:59;16.90;;;6.78;;
34581;SDS011;20814;49.364;8.804;2023-03-01T07:30:25;15.13;;;6.53;;
34581;SDS011;20814;49.364;8.804;2023-03-01T07:32:52;19.25;;;7.78;;
